sensor_id;sensor_type;location;lat;lon;timestamp;pressure;altitude;pressure_sealevel;temperature;humidity
4814;BME280;15375;48.540;9.268;2023-03-03T00:00:33;97505.88;;;2.15;100.00
4814;BME280;15375;48.540;9.268;2023-03-03T00:03:00;97526.63;;;2.37;100.00
4814;BME280;15375;48.540;9.268;2023-03-03T00:05:31;97497.91;;;2.22;100.00
4814;BME280;15375;48.540;9.268;2023-03-03T00:07:57;97519.09;;;2.46;100.00
4814;BME280;15375;48.540;9.268;2023-03-03T00:10:22;97525.00;;;2.55;100.00
4814;BME280;15375;48.540;9.268;2023-03-03T00:12:49;97513.75;;;2.49;100.00
4814;BME280;15375;48.540;9.268;2023-03-03T00:15:17;97524.28;;;2.58;100.00
4814;BME280;15375;48.540;9.268;2023-03-03T00:17:42;97504.94;;;2.49;100.00
4814;BME280;15375;48.540;9.268;2023-03-03T00:20:36;97518.91;;;2.58;100.00
4814;BME280;15375;48.540;9.268;2023-03-03T00:25:52;97532.78;;;2.60;100.00
4814;BME280;15375;48.540;9.268;2023-03-03T00:28:40;97508.63;;;2.41;100.00
4814;BME280;15375;48.540;9.268;2023-03-03T00:31:30;97529.91;;;2.49;100.00
4814;BME280;15375;48.540;9.268;2023-03-03T00:36:36;97525.06;;;2.58;100.00
4814;BME280;15375;48.540;9.268;2023-03-03T00:41:42;97523.50;;;2.57;100.00
4814;BME280;15375;48.540;9.268;2023-03-03T00:44:30;97528.72;;;2.47;100.00
4814;BME280;15375;48.540;9.268;2023-03-03T00:46:57;97531.84;;;2.49;100.00
4814;BME280;15375;48.540;9.268;2023-03-03T00:49:26;97529.50;;;2.47;100.00
4814;BME280;15375;48.540;9.268;2023-03-03T00:51:52;97510.16;;;2.42;100.00
4814;BME280;15375;48.540;9.268;2023-03-03T00:54:18;97517.53;;;2.45;100.00
4814;BME280;15375;48.540;9.268;2023-03-03T00:56:43;97509.28;;;2.34;100.00
4814;BME280;15375;48.540;9.268;2023-03-03T00:59:09;97507.06;;;2.40;100.00
4814;BME280;15375;48.540;9.268;2023-03-03T01:01:34;97498.94;;;2.36;100.00
4814;BME280;15375;48.540;9.268;2023-03-03T01:04:00;97490.91;;;2.17;100.00
4814;BME280;15375;48.540;9.268;2023-03-03T01:06:25;97488.19;;;2.14;100.00
4814;BME280;15375;48.540;9.268;2023-03-03T01:08:51;97478.06;;;2.07;100.00
4814;BME280;15375;48.540;9.268;2023-03-03T01:11:21;97514.25;;;2.32;100.00
4814;BME280;15375;48.540;9.268;2023-03-03T01:13:49;97497.16;;;2.21;100.00
4814;BME280;15375;48.540;9.268;2023-03-03T01:16:15;97507.06;;;2.17;100.00
4814;BME280;15375;48.540;9.268;2023-03-03T01:18:40;97476.66;;;1.94;100.00
4814;BME280;15375;48.540;9.268;2023-03-03T01:21:07;97491.47;;;2.04;100.00
4814;BME280;15375;48.540;9.268;2023-03-03T01:23:33;97519.13;;;2.04;100.00
4814;BME280;15375;48.540;9.268;2023-03-03T01:25:58;97512.16;;;1.80;100.00
4814;BME280;15375;48.540;9.268;2023-03-03T01:28:24;97513.56;;;1.74;100.00
4814;BME280;15375;48.540;9.268;2023-03-03T01:30:49;97476.66;;;1.52;100.00
4814;BME280;15375;48.540;9.268;2023-03-03T01:33:15;97483.31;;;1.58;100.00
4814;BME280;15375;48.540;9.268;2023-03-03T01:35:45;97483.75;;;1.60;100.00
4814;BME280;15375;48.540;9.268;2023-03-03T01:38:10;97514.06;;;1.80;100.00
4814;BME280;15375;48.540;9.268;2023-03-03T01:40:36;97494.25;;;1.69;100.00
4814;BME280;15375;48.540;9.268;2023-03-03T01:43:02;97503.34;;;1.61;100.00
4814;BME280;15375;48.540;9.268;2023-03-03T01:45:41;97500.94;;;1.56;100.00
4814;BME280;15375;48.540;9.268;2023-03-03T01:48:22;97483.03;;;1.44;100.00
4814;BME280;15375;48.540;9.268;2023-03-03T01:51:01;97502.41;;;1.53;100.00
4814;BME280;15375;48.540;9.268;2023-03-03T01:53:33;97520.22;;;1.61;100.00
4814;BME280;15375;48.540;9.268;2023-03-03T01:56:02;97513.44;;;1.48;100.00
4814;BME280;15375;48.540;9.268;2023-03-03T01:58:31;97504.66;;;1.13;100.00
4814;BME280;15375;48.540;9.268;2023-03-03T02:01:04;97525.78;;;1.14;100.00
4814;BME280;15375;48.540;9.268;2023-03-03T02:03:32;97501.38;;;1.04;100.00
4814;BME280;15375;48.540;9.268;2023-03-03T02:06:05;97510.41;;;0.96;100.00
4814;BME280;15375;48.540;9.268;2023-03-03T02:11:11;97506.59;;;0.97;100.00
4814;BME280;15375;48.540;9.268;2023-03-03T02:13:37;97500.13;;;0.82;100.00
4814;BME280;15375;48.540;9.268;2023-03-03T02:16:03;97491.25;;;0.62;100.00
4814;BME280;15375;48.540;9.268;2023-03-03T02:18:28;97506.19;;;0.79;100.00
4814;BME280;15375;48.540;9.268;2023-03-03T02:21:08;97513.13;;;0.80;100.00
4814;BME280;15375;48.540;9.268;2023-03-03T02:26:23;97476.78;;;0.67;100.00
4814;BME280;15375;48.540;9.268;2023-03-03T02:28:49;97502.03;;;0.82;100.00
4814;BME280;15375;48.540;9.268;2023-03-03T02:31:19;97487.66;;;0.74;100.00
4814;BME280;15375;48.540;9.268;2023-03-03T02:33:47;97475.03;;;0.75;100.00
4814;BME280;15375;48.540;9.268;2023-03-03T02:36:21;97490.47;;;0.97;100.00
4814;BME280;15375;48.540;9.268;2023-03-03T02:38:52;97495.16;;;1.00;100.00
4814;BME280;15375;48.540;9.268;2023-03-03T02:44:07;97483.94;;;0.79;100.00
4814;BME280;15375;48.540;9.268;2023-03-03T02:46:39;97470.72;;;0.70;100.00
4814;BME280;15375;48.540;9.268;2023-03-03T02:49:06;97494.06;;;0.85;100.00
4814;BME280;15375;48.540;9.268;2023-03-03T02:51:33;97485.91;;;0.97;100.00
4814;BME280;15375;48.540;9.268;2023-03-03T02:53:59;97491.19;;;0.94;100.00
4814;BME280;15375;48.540;9.268;2023-03-03T02:56:25;97462.19;;;0.84;100.00
4814;BME280;15375;48.540;9.268;2023-03-03T02:58:50;97474.56;;;0.88;100.00
4814;BME280;15375;48.540;9.268;2023-03-03T03:01:16;97459.66;;;0.91;100.00
4814;BME280;15375;48.540;9.268;2023-03-03T03:03:41;97443.53;;;0.91;100.00
4814;BME280;15375;48.540;9.268;2023-03-03T03:06:07;97481.31;;;1.17;100.00
4814;BME280;15375;48.540;9.268;2023-03-03T03:08:32;97476.38;;;1.19;100.00
4814;BME280;15375;48.540;9.268;2023-03-03T03:10:58;97488.81;;;1.27;100.00
4814;BME280;15375;48.540;9.268;2023-03-03T03:13:23;97472.56;;;1.20;100.00
4814;BME280;15375;48.540;9.268;2023-03-03T03:15:50;97502.47;;;1.38;100.00
4814;BME280;15375;48.540;9.268;2023-03-03T03:18:16;97474.28;;;1.28;100.00
4814;BME280;15375;48.540;9.268;2023-03-03T03:20:42;97498.03;;;1.45;100.00
4814;BME280;15375;48.540;9.268;2023-03-03T03:23:08;97479.56;;;1.44;100.00
4814;BME280;15375;48.540;9.268;2023-03-03T03:25:34;97470.53;;;1.33;100.00
4814;BME280;15375;48.540;9.268;2023-03-03T03:28:00;97503.13;;;1.50;100.00
4814;BME280;15375;48.540;9.268;2023-03-03T03:30:26;97498.94;;;1.53;100.00
4814;BME280;15375;48.540;9.268;2023-03-03T03:32:51;97471.03;;;1.38;100.00
4814;BME280;15375;48.540;9.268;2023-03-03T03:35:17;97473.75;;;1.42;100.00
4814;BME280;15375;48.540;9.268;2023-03-03T03:37:43;97476.44;;;1.42;100.00
4814;BME280;15375;48.540;9.268;2023-03-03T03:40:08;97478.94;;;1.50;100.00
4814;BME280;15375;48.540;9.268;2023-03-03T03:42:34;97472.28;;;1.44;100.00
4814;BME280;15375;48.540;9.268;2023-03-03T03:44:59;97471.22;;;1.49;100.00
4814;BME280;15375;48.540;9.268;2023-03-03T03:47:25;97488.75;;;1.62;100.00
4814;BME280;15375;48.540;9.268;2023-03-03T03:49:50;97489.41;;;1.55;100.00
4814;BME280;15375;48.540;9.268;2023-03-03T03:52:15;97483.44;;;1.46;100.00
4814;BME280;15375;48.540;9.268;2023-03-03T03:54:41;97483.38;;;1.43;100.00
4814;BME280;15375;48.540;9.268;2023-03-03T03:57:06;97508.91;;;1.52;100.00
4814;BME280;15375;48.540;9.268;2023-03-03T03:59:32;97506.22;;;1.52;100.00
4814;BME280;15375;48.540;9.268;2023-03-03T04:01:57;97479.84;;;1.39;100.00
4814;BME280;15375;48.540;9.268;2023-03-03T04:04:23;97482.25;;;1.44;100.00
4814;BME280;15375;48.540;9.268;2023-03-03T04:06:48;97474.19;;;1.44;100.00
4814;BME280;15375;48.540;9.268;2023-03-03T04:09:14;97477.66;;;1.44;100.00
4814;BME280;15375;48.540;9.268;2023-03-03T04:11:39;97479.13;;;1.42;100.00
4814;BME280;15375;48.540;9.268;2023-03-03T04:14:05;97481.19;;;1.48;100.00
4814;BME280;15375;48.540;9.268;2023-03-03T04:16:30;97494.13;;;1.62;100.00
4814;BME280;15375;48.540;9.268;2023-03-03T04:18:56;97516.47;;;1.85;100.00
4814;BME280;15375;48.540;9.268;2023-03-03T04:21:21;97453.97;;;1.50;100.00
4814;BME280;15375;48.540;9.268;2023-03-03T04:23:46;97497.44;;;1.74;100.00
4814;BME280;15375;48.540;9.268;2023-03-03T04:26:12;97479.47;;;1.59;100.00
4814;BME280;15375;48.540;9.268;2023-03-03T04:28:37;97456.56;;;1.46;100.00
4814;BME280;15375;48.540;9.268;2023-03-03T04:31:03;97495.03;;;1.69;100.00
4814;BME280;15375;48.540;9.268;2023-03-03T04:33:28;97511.00;;;1.81;100.00
4814;BME280;15375;48.540;9.268;2023-03-03T04:35:54;97492.47;;;1.76;100.00
4814;BME280;15375;48.540;9.268;2023-03-03T04:38:19;97520.91;;;1.97;100.00
4814;BME280;15375;48.540;9.268;2023-03-03T04:40:44;97486.81;;;1.81;100.00
4814;BME280;15375;48.540;9.268;2023-03-03T04:43:10;97520.56;;;1.98;100.00
4814;BME280;15375;48.540;9.268;2023-03-03T04:45:36;97520.91;;;1.97;100.00
4814;BME280;15375;48.540;9.268;2023-03-03T04:48:01;97494.75;;;1.74;100.00
4814;BME280;15375;48.540;9.268;2023-03-03T04:50:27;97480.91;;;1.53;100.00
4814;BME280;15375;48.540;9.268;2023-03-03T04:52:52;97508.91;;;1.71;100.00
4814;BME280;15375;48.540;9.268;2023-03-03T04:55:18;97491.03;;;1.60;100.00
4814;BME280;15375;48.540;9.268;2023-03-03T04:57:43;97529.09;;;1.81;100.00
4814;BME280;15375;48.540;9.268;2023-03-03T05:00:11;97500.00;;;1.67;100.00
4814;BME280;15375;48.540;9.268;2023-03-03T05:02:40;97531.25;;;1.94;100.00
4814;BME280;15375;48.540;9.268;2023-03-03T05:05:06;97501.03;;;1.82;100.00
4814;BME280;15375;48.540;9.268;2023-03-03T05:07:32;97533.34;;;2.05;100.00
4814;BME280;15375;48.540;9.268;2023-03-03T05:09:57;97513.97;;;1.96;100.00
4814;BME280;15375;48.540;9.268;2023-03-03T05:12:22;97537.72;;;2.13;100.00
4814;BME280;15375;48.540;9.268;2023-03-03T05:14:48;97498.56;;;1.92;100.00
4814;BME280;15375;48.540;9.268;2023-03-03T05:17:13;97510.03;;;1.89;100.00
4814;BME280;15375;48.540;9.268;2023-03-03T05:19:39;97529.47;;;2.02;100.00
4814;BME280;15375;48.540;9.268;2023-03-03T05:22:04;97522.88;;;2.00;100.00
4814;BME280;15375;48.540;9.268;2023-03-03T05:24:30;97517.88;;;1.98;100.00
4814;BME280;15375;48.540;9.268;2023-03-03T05:26:55;97513.19;;;1.95;100.00
4814;BME280;15375;48.540;9.268;2023-03-03T05:29:21;97516.72;;;1.99;100.00
4814;BME280;15375;48.540;9.268;2023-03-03T05:31:46;97518.72;;;2.02;100.00
4814;BME280;15375;48.540;9.268;2023-03-03T05:34:12;97528.06;;;2.08;100.00
4814;BME280;15375;48.540;9.268;2023-03-03T05:36:37;97545.09;;;2.16;100.00
4814;BME280;15375;48.540;9.268;2023-03-03T05:39:03;97541.69;;;2.19;100.00
4814;BME280;15375;48.540;9.268;2023-03-03T05:41:28;97520.59;;;2.02;100.00
4814;BME280;15375;48.540;9.268;2023-03-03T05:43:54;97515.91;;;1.95;100.00
4814;BME280;15375;48.540;9.268;2023-03-03T05:46:19;97530.66;;;2.05;100.00
4814;BME280;15375;48.540;9.268;2023-03-03T05:48:44;97549.63;;;2.12;100.00
4814;BME280;15375;48.540;9.268;2023-03-03T05:51:10;97512.88;;;1.77;100.00
4814;BME280;15375;48.540;9.268;2023-03-03T05:53:35;97539.72;;;1.97;100.00
4814;BME280;15375;48.540;9.268;2023-03-03T05:56:01;97524.47;;;1.81;100.00
4814;BME280;15375;48.540;9.268;2023-03-03T05:58:26;97557.53;;;2.01;100.00
4814;BME280;15375;48.540;9.268;2023-03-03T06:00:52;97534.75;;;1.76;100.00
4814;BME280;15375;48.540;9.268;2023-03-03T06:03:17;97549.88;;;1.84;100.00
4814;BME280;15375;48.540;9.268;2023-03-03T06:05:43;97463.53;;;1.28;100.00
4814;BME280;15375;48.540;9.268;2023-03-03T06:08:08;97533.81;;;1.68;100.00
4814;BME280;15375;48.540;9.268;2023-03-03T06:10:34;97555.81;;;1.74;100.00
4814;BME280;15375;48.540;9.268;2023-03-03T06:12:59;97554.19;;;1.69;100.00
4814;BME280;15375;48.540;9.268;2023-03-03T06:15:25;97553.63;;;1.79;100.00
4814;BME280;15375;48.540;9.268;2023-03-03T06:17:50;97578.59;;;1.99;100.00
4814;BME280;15375;48.540;9.268;2023-03-03T06:20:16;97539.84;;;1.81;100.00
4814;BME280;15375;48.540;9.268;2023-03-03T06:22:41;97559.44;;;2.01;100.00
4814;BME280;15375;48.540;9.268;2023-03-03T06:25:07;97550.94;;;1.99;100.00
4814;BME280;15375;48.540;9.268;2023-03-03T06:27:33;97579.78;;;2.21;100.00
4814;BME280;15375;48.540;9.268;2023-03-03T06:29:58;97571.34;;;2.22;100.00
4814;BME280;15375;48.540;9.268;2023-03-03T06:32:23;97548.66;;;2.01;100.00
4814;BME280;15375;48.540;9.268;2023-03-03T06:34:49;97566.34;;;2.21;100.00
4814;BME280;15375;48.540;9.268;2023-03-03T06:37:14;97553.88;;;2.13;100.00
4814;BME280;15375;48.540;9.268;2023-03-03T06:39:40;97535.56;;;1.99;100.00
4814;BME280;15375;48.540;9.268;2023-03-03T06:42:05;97566.38;;;2.24;100.00
4814;BME280;15375;48.540;9.268;2023-03-03T06:44:31;97562.94;;;2.24;100.00
4814;BME280;15375;48.540;9.268;2023-03-03T06:46:56;97561.28;;;2.19;100.00
4814;BME280;15375;48.540;9.268;2023-03-03T06:49:22;97552.03;;;2.17;100.00
4814;BME280;15375;48.540;9.268;2023-03-03T06:51:48;97585.41;;;2.35;100.00
4814;BME280;15375;48.540;9.268;2023-03-03T06:54:15;97605.25;;;2.46;100.00
4814;BME280;15375;48.540;9.268;2023-03-03T06:56:42;97592.78;;;2.38;100.00
4814;BME280;15375;48.540;9.268;2023-03-03T06:59:12;97591.72;;;2.42;100.00
4814;BME280;15375;48.540;9.268;2023-03-03T07:01:38;97595.59;;;2.45;100.00
4814;BME280;15375;48.540;9.268;2023-03-03T07:04:38;97599.97;;;2.53;100.00
4814;BME280;15375;48.540;9.268;2023-03-03T07:07:17;97625.31;;;2.71;100.00
4814;BME280;15375;48.540;9.268;2023-03-03T07:09:44;97603.34;;;2.69;100.00
4814;BME280;15375;48.540;9.268;2023-03-03T07:12:14;97610.38;;;2.77;100.00
4814;BME280;15375;48.540;9.268;2023-03-03T07:14:46;97614.66;;;2.78;100.00
4814;BME280;15375;48.540;9.268;2023-03-03T07:17:18;97615.06;;;2.80;100.00
4814;BME280;15375;48.540;9.268;2023-03-03T07:19:44;97605.19;;;2.65;100.00
4814;BME280;15375;48.540;9.268;2023-03-03T07:24:38;97618.66;;;2.65;100.00
4814;BME280;15375;48.540;9.268;2023-03-03T07:29:46;97628.94;;;2.59;100.00
4814;BME280;15375;48.540;9.268;2023-03-03T07:34:46;97603.97;;;2.40;100.00
4814;BME280;15375;48.540;9.268;2023-03-03T07:37:17;97621.00;;;2.67;100.00
4814;BME280;15375;48.540;9.268;2023-03-03T07:39:46;97621.03;;;2.70;100.00
4814;BME280;15375;48.540;9.268;2023-03-03T07:44:51;97637.31;;;3.00;100.00
4814;BME280;15375;48.540;9.268;2023-03-03T07:47:19;97636.38;;;3.11;100.00
4814;BME280;15375;48.540;9.268;2023-03-03T07:49:46;97622.91;;;3.11;100.00
4814;BME280;15375;48.540;9.268;2023-03-03T07:52:38;97637.44;;;3.30;100.00
4814;BME280;15375;48.540;9.268;2023-03-03T07:55:30;97637.75;;;3.25;100.00
4814;BME280;15375;48.540;9.268;2023-03-03T08:01:30;97648.53;;;3.25;100.00
4814;BME280;15375;48.540;9.268;2023-03-03T08:03:59;97651.63;;;3.27;100.00
4814;BME280;15375;48.540;9.268;2023-03-03T08:14:25;97626.94;;;3.51;100.00
4814;BME280;15375;48.540;9.268;2023-03-03T08:16:51;97589.47;;;3.42;100.00
4814;BME280;15375;48.540;9.268;2023-03-03T08:19:17;97623.84;;;3.75;100.00
4814;BME280;15375;48.540;9.268;2023-03-03T08:21:43;97624.72;;;3.86;100.00
4814;BME280;15375;48.540;9.268;2023-03-03T08:24:09;97606.16;;;3.81;100.00
4814;BME280;15375;48.540;9.268;2023-03-03T08:26:34;97594.31;;;3.89;100.00
4814;BME280;15375;48.540;9.268;2023-03-03T08:28:59;97618.56;;;4.15;99.31
4814;BME280;15375;48.540;9.268;2023-03-03T08:31:26;97636.53;;;4.37;97.51
4814;BME280;15375;48.540;9.268;2023-03-03T08:33:51;97631.22;;;4.44;95.40
4814;BME280;15375;48.540;9.268;2023-03-03T08:36:17;97623.13;;;4.44;94.04
4814;BME280;15375;48.540;9.268;2023-03-03T08:38:42;97612.69;;;4.43;92.89
4814;BME280;15375;48.540;9.268;2023-03-03T08:41:08;97591.09;;;4.46;93.00
4814;BME280;15375;48.540;9.268;2023-03-03T08:43:33;97613.06;;;4.82;91.17
4814;BME280;15375;48.540;9.268;2023-03-03T08:46:00;97634.81;;;4.96;88.60
4814;BME280;15375;48.540;9.268;2023-03-03T08:48:27;97634.13;;;5.06;85.96
4814;BME280;15375;48.540;9.268;2023-03-03T08:50:53;97638.09;;;5.19;85.40
4814;BME280;15375;48.540;9.268;2023-03-03T08:53:19;97633.16;;;5.32;85.52
4814;BME280;15375;48.540;9.268;2023-03-03T08:55:45;97629.75;;;5.38;84.55
4814;BME280;15375;48.540;9.268;2023-03-03T08:58:10;97615.41;;;5.34;84.09
4814;BME280;15375;48.540;9.268;2023-03-03T09:00:39;97616.28;;;5.49;84.11
4814;BME280;15375;48.540;9.268;2023-03-03T09:03:05;97638.03;;;5.63;81.84
4814;BME280;15375;48.540;9.268;2023-03-03T09:05:32;97640.38;;;5.71;84.28
4814;BME280;15375;48.540;9.268;2023-03-03T09:07:58;97621.81;;;5.70;82.52
4814;BME280;15375;48.540;9.268;2023-03-03T09:10:26;97637.56;;;6.15;81.80
4814;BME280;15375;48.540;9.268;2023-03-03T09:12:57;97634.19;;;6.43;78.27
4814;BME280;15375;48.540;9.268;2023-03-03T09:17:52;97656.25;;;6.52;77.87
4814;BME280;15375;48.540;9.268;2023-03-03T09:22:47;97635.84;;;6.93;75.05
4814;BME280;15375;48.540;9.268;2023-03-03T09:27:44;97642.84;;;7.37;70.01
4814;BME280;15375;48.540;9.268;2023-03-03T09:32:50;97653.22;;;6.68;73.92
4814;BME280;15375;48.540;9.268;2023-03-03T09:35:37;97675.22;;;6.49;76.27
4814;BME280;15375;48.540;9.268;2023-03-03T09:41:21;97660.66;;;7.24;72.09
4814;BME280;15375;48.540;9.268;2023-03-03T09:52:13;97667.63;;;7.18;70.77
4814;BME280;15375;48.540;9.268;2023-03-03T10:08:55;97654.41;;;8.84;61.82
4814;BME280;15375;48.540;9.268;2023-03-03T10:11:28;97657.63;;;8.65;59.39
4814;BME280;15375;48.540;9.268;2023-03-03T10:14:30;97668.00;;;7.69;62.53
4814;BME280;15375;48.540;9.268;2023-03-03T10:22:52;97666.75;;;8.12;63.51
4814;BME280;15375;48.540;9.268;2023-03-03T10:34:06;97659.59;;;9.23;62.99
4814;BME280;15375;48.540;9.268;2023-03-03T10:39:49;97663.59;;;9.04;59.34
4814;BME280;15375;48.540;9.268;2023-03-03T10:53:07;97660.66;;;8.81;61.63
4814;BME280;15375;48.540;9.268;2023-03-03T11:01:58;97662.47;;;9.02;62.04
4814;BME280;15375;48.540;9.268;2023-03-03T11:07:42;97640.44;;;9.78;60.23
4814;BME280;15375;48.540;9.268;2023-03-03T11:13:31;97635.00;;;10.49;56.79
4814;BME280;15375;48.540;9.268;2023-03-03T11:16:40;97631.88;;;9.79;57.28
4814;BME280;15375;48.540;9.268;2023-03-03T11:19:43;97640.75;;;9.46;61.16
4814;BME280;15375;48.540;9.268;2023-03-03T11:25:07;97657.69;;;10.05;58.84
4814;BME280;15375;48.540;9.268;2023-03-03T11:35:26;97650.47;;;10.25;57.72
4814;BME280;15375;48.540;9.268;2023-03-03T11:40:29;97619.13;;;10.70;57.09
4814;BME280;15375;48.540;9.268;2023-03-03T11:43:21;97644.00;;;11.03;56.15
4814;BME280;15375;48.540;9.268;2023-03-03T11:45:55;97624.91;;;11.26;55.60
4814;BME280;15375;48.540;9.268;2023-03-03T11:51:01;97637.94;;;10.92;53.59
4814;BME280;15375;48.540;9.268;2023-03-03T11:56:32;97637.00;;;11.02;54.49
4814;BME280;15375;48.540;9.268;2023-03-03T11:59:13;97628.53;;;10.66;54.58
4814;BME280;15375;48.540;9.268;2023-03-03T12:01:56;97617.97;;;10.41;55.72
4814;BME280;15375;48.540;9.268;2023-03-03T12:04:35;97627.66;;;10.08;55.97
4814;BME280;15375;48.540;9.268;2023-03-03T12:12:42;97623.53;;;9.97;57.15
4814;BME280;15375;48.540;9.268;2023-03-03T12:26:33;97618.81;;;10.35;58.28
4814;BME280;15375;48.540;9.268;2023-03-03T12:37:54;97607.44;;;10.40;55.66
4814;BME280;15375;48.540;9.268;2023-03-03T12:40:25;97611.84;;;10.30;54.85
4814;BME280;15375;48.540;9.268;2023-03-03T12:43:26;97615.59;;;10.43;55.95
4814;BME280;15375;48.540;9.268;2023-03-03T12:46:00;97586.81;;;10.69;54.50
4814;BME280;15375;48.540;9.268;2023-03-03T12:48:42;97607.25;;;10.84;54.43
4814;BME280;15375;48.540;9.268;2023-03-03T12:51:33;97604.81;;;10.89;54.80
4814;BME280;15375;48.540;9.268;2023-03-03T12:54:52;97593.56;;;11.11;53.27
4814;BME280;15375;48.540;9.268;2023-03-03T13:05:44;97575.75;;;10.79;53.79
4814;BME280;15375;48.540;9.268;2023-03-03T13:08:24;97604.66;;;10.73;55.65
4814;BME280;15375;48.540;9.268;2023-03-03T13:14:24;97591.94;;;11.40;53.37
4814;BME280;15375;48.540;9.268;2023-03-03T13:19:59;97603.41;;;10.51;55.42
4814;BME280;15375;48.540;9.268;2023-03-03T13:28:20;97550.72;;;11.08;53.80
4814;BME280;15375;48.540;9.268;2023-03-03T13:30:49;97579.78;;;11.18;53.82
4814;BME280;15375;48.540;9.268;2023-03-03T13:35:49;97572.84;;;11.13;54.11
4814;BME280;15375;48.540;9.268;2023-03-03T13:38:22;97581.56;;;11.28;54.84
4814;BME280;15375;48.540;9.268;2023-03-03T13:41:03;97584.38;;;11.47;54.22
4814;BME280;15375;48.540;9.268;2023-03-03T13:43:53;97583.06;;;10.82;53.48
4814;BME280;15375;48.540;9.268;2023-03-03T13:51:44;97591.72;;;10.51;56.05
4814;BME280;15375;48.540;9.268;2023-03-03T13:59:46;97592.03;;;9.92;58.05
4814;BME280;15375;48.540;9.268;2023-03-03T14:07:36;97575.47;;;10.13;56.30
4814;BME280;15375;48.540;9.268;2023-03-03T14:12:41;97561.06;;;9.79;57.15
4814;BME280;15375;48.540;9.268;2023-03-03T14:15:17;97573.34;;;9.94;58.25
4814;BME280;15375;48.540;9.268;2023-03-03T14:20:28;97557.25;;;9.70;59.21
4814;BME280;15375;48.540;9.268;2023-03-03T14:23:02;97570.41;;;9.78;58.96
4814;BME280;15375;48.540;9.268;2023-03-03T14:28:20;97570.94;;;9.66;58.90
4814;BME280;15375;48.540;9.268;2023-03-03T14:30:46;97574.88;;;9.61;58.54
4814;BME280;15375;48.540;9.268;2023-03-03T14:35:40;97573.47;;;9.84;58.99
4814;BME280;15375;48.540;9.268;2023-03-03T14:38:14;97571.00;;;9.93;59.58
4814;BME280;15375;48.540;9.268;2023-03-03T14:40:42;97568.50;;;10.09;58.68
4814;BME280;15375;48.540;9.268;2023-03-03T14:46:30;97556.16;;;9.97;57.41
4814;BME280;15375;48.540;9.268;2023-03-03T14:49:34;97532.69;;;9.39;59.23
4814;BME280;15375;48.540;9.268;2023-03-03T14:54:46;97555.16;;;9.47;58.84
4814;BME280;15375;48.540;9.268;2023-03-03T14:57:39;97553.72;;;9.35;59.46
4814;BME280;15375;48.540;9.268;2023-03-03T15:02:42;97581.03;;;9.28;60.77
4814;BME280;15375;48.540;9.268;2023-03-03T15:05:21;97568.19;;;9.29;60.24
4814;BME280;15375;48.540;9.268;2023-03-03T15:07:52;97580.16;;;9.38;59.89
4814;BME280;15375;48.540;9.268;2023-03-03T15:10:38;97552.38;;;9.13;59.03
4814;BME280;15375;48.540;9.268;2023-03-03T15:13:33;97553.47;;;9.19;58.48
4814;BME280;15375;48.540;9.268;2023-03-03T15:18:29;97546.50;;;9.18;59.39
4814;BME280;15375;48.540;9.268;2023-03-03T15:23:46;97567.69;;;9.37;59.99
4814;BME280;15375;48.540;9.268;2023-03-03T15:26:32;97569.22;;;9.42;59.26
4814;BME280;15375;48.540;9.268;2023-03-03T15:29:08;97551.81;;;9.32;58.98
4814;BME280;15375;48.540;9.268;2023-03-03T15:34:44;97569.44;;;9.17;60.66
4814;BME280;15375;48.540;9.268;2023-03-03T15:40:35;97575.56;;;9.28;59.45
4814;BME280;15375;48.540;9.268;2023-03-03T15:43:27;97573.28;;;9.23;58.84
4814;BME280;15375;48.540;9.268;2023-03-03T15:46:08;97572.97;;;9.14;58.65
4814;BME280;15375;48.540;9.268;2023-03-03T16:06:04;97492.38;;;8.35;59.76
4814;BME280;15375;48.540;9.268;2023-03-03T16:08:15;97552.75;;;8.64;60.58
4814;BME280;15375;48.540;9.268;2023-03-03T16:16:46;97580.88;;;8.40;62.22
4814;BME280;15375;48.540;9.268;2023-03-03T16:30:31;97575.25;;;7.88;65.46
4814;BME280;15375;48.540;9.268;2023-03-03T16:35:46;97597.41;;;7.69;67.20
4814;BME280;15375;48.540;9.268;2023-03-03T16:38:31;97592.78;;;7.62;66.37
4814;BME280;15375;48.540;9.268;2023-03-03T16:41:00;97576.50;;;7.48;66.51
4814;BME280;15375;48.540;9.268;2023-03-03T16:43:42;97585.81;;;7.40;67.27
4814;BME280;15375;48.540;9.268;2023-03-03T16:46:21;97609.09;;;7.45;67.81
4814;BME280;15375;48.540;9.268;2023-03-03T16:49:02;97610.28;;;7.30;67.92
4814;BME280;15375;48.540;9.268;2023-03-03T16:51:40;97625.38;;;7.24;67.89
4814;BME280;15375;48.540;9.268;2023-03-03T16:54:28;97607.56;;;7.08;69.52
4814;BME280;15375;48.540;9.268;2023-03-03T16:57:18;97612.22;;;7.12;69.83
4814;BME280;15375;48.540;9.268;2023-03-03T17:00:28;97625.38;;;7.02;69.07
4814;BME280;15375;48.540;9.268;2023-03-03T17:02:57;97627.31;;;6.98;70.16
4814;BME280;15375;48.540;9.268;2023-03-03T17:05:59;97633.13;;;6.93;70.45
4814;BME280;15375;48.540;9.268;2023-03-03T17:22:11;97657.09;;;6.70;70.24
4814;BME280;15375;48.540;9.268;2023-03-03T17:24:41;97617.50;;;6.34;70.21
4814;BME280;15375;48.540;9.268;2023-03-03T17:27:27;97643.06;;;6.40;70.49
4814;BME280;15375;48.540;9.268;2023-03-03T17:30:09;97665.91;;;6.50;70.56
4814;BME280;15375;48.540;9.268;2023-03-03T17:38:17;97675.41;;;6.01;73.05
4814;BME280;15375;48.540;9.268;2023-03-03T17:45:58;97687.47;;;5.60;78.61
4814;BME280;15375;48.540;9.268;2023-03-03T17:48:48;97686.59;;;5.49;79.11
4814;BME280;15375;48.540;9.268;2023-03-03T17:51:31;97691.19;;;5.38;79.45
4814;BME280;15375;48.540;9.268;2023-03-03T18:00:05;97705.09;;;4.96;81.92
4814;BME280;15375;48.540;9.268;2023-03-03T18:11:21;97710.41;;;4.52;82.80
4814;BME280;15375;48.540;9.268;2023-03-03T18:13:54;97710.81;;;4.54;83.88
4814;BME280;15375;48.540;9.268;2023-03-03T18:30:22;97727.78;;;3.95;88.26
4814;BME280;15375;48.540;9.268;2023-03-03T18:37:51;97727.16;;;3.79;87.62
4814;BME280;15375;48.540;9.268;2023-03-03T18:42:43;97725.69;;;3.59;88.65
4814;BME280;15375;48.540;9.268;2023-03-03T18:45:46;97708.16;;;3.46;88.64
4814;BME280;15375;48.540;9.268;2023-03-03T18:48:14;97753.78;;;3.58;89.83
4814;BME280;15375;48.540;9.268;2023-03-03T18:50:47;97751.38;;;3.49;89.13
4814;BME280;15375;48.540;9.268;2023-03-03T18:53:28;97745.59;;;3.28;90.83
4814;BME280;15375;48.540;9.268;2023-03-03T18:55:58;97745.56;;;3.25;91.63
4814;BME280;15375;48.540;9.268;2023-03-03T18:58:30;97755.75;;;3.35;91.84
4814;BME280;15375;48.540;9.268;2023-03-03T19:00:59;97752.50;;;3.26;92.07